Fangst — LK6971 — position and weather

sailwx.info

Track history (hours):
 
Tides and Currents Weather Stations Pressure Air Temp Water Temp Dewpoint Dewpoint Depression Visibility Wind Speed Wind Dir Waves Ship Positions

Oceanographic research ship Fangst (Norway)

Detailed information on ship capabilities available from University of Delaware's Ocean Information Center and ARCUS's ALIAS (Arctic Logistics Information and Support) project.

Last reported at 2020-Aug-10 00:30 UTC. Time now 2020-Aug-10 02:39 UTC.
Position N 63°47' E 011°26'.

Length 14 m; draft 3 m.

Type: Fishing. MMSI: 257076840.

Date/timePositionNaut miles runAvg speedWind from/ knotsBaromVisibWave heightAir tempDewpointWater temp
2020-Aug-10 00:30N 63°47' E 011°26'0 0.0
2020-Aug-09 23:30N 63°47' E 011°26'0 0.0
2020-Aug-09 20:00N 63°47' E 011°26'0 0.0
2020-Aug-09 18:30N 63°47' E 011°26'2 1.1
2020-Aug-09 16:30N 63°47' E 011°22'2 1.6
2020-Aug-09 15:00N 63°45' E 011°18'181.3
2020-Aug-09 15:00N 63°45' E 011°17'1 0.2
2020-Aug-09 12:30N 63°45' E 011°18'145.7
2020-Aug-09 12:29N 63°45' E 011°17'1 0.5
2020-Aug-09 11:00N 63°45' E 011°18'0 0.3
2020-Aug-09 09:30N 63°45' E 011°17'01464.5
2020-Aug-09 09:30N 63°45' E 011°18'2 0.8
2020-Aug-09 07:30N 63°46' E 011°20'3 5.4
2020-Aug-09 07:00N 63°47' E 011°26'0 0.3
2020-Aug-09 05:30N 63°47' E 011°26'0 0.0
2020-Aug-09 04:30N 63°47' E 011°26'0 0.0
2020-Aug-08 23:30N 63°47' E 011°26'0 0.0
2020-Aug-08 22:30N 63°47' E 011°26'0 0.0
2020-Aug-08 21:30N 63°47' E 011°26'0 0.0
2020-Aug-08 17:30N 63°47' E 011°26'0 0.0
2020-Aug-08 14:30N 63°47' E 011°26'6 4.2
2020-Aug-08 13:00N 63°51' E 011°15'0 1.5
2020-Aug-08 13:00N 63°51' E 011°15'0 0.1
2020-Aug-08 11:30N 63°51' E 011°15'146.1
2020-Aug-08 11:29N 63°52' E 011°18'1 1.6
2020-Aug-08 11:00N 63°51' E 011°16'01580.1
2020-Aug-08 11:00N 63°51' E 011°15'4 1.1
2020-Aug-08 07:34N 63°50' E 011°07'015.6
2020-Aug-08 07:34N 63°50' E 011°07'9 3.5
2020-Aug-08 05:00N 63°47' E 011°26'0 0.0
2020-Aug-08 04:00N 63°47' E 011°26'0 0.0
2020-Aug-08 03:30N 63°47' E 011°26'0 0.0
2020-Aug-08 03:00N 63°47' E 011°26'0 0.0
2020-Aug-08 01:00N 63°47' E 011°26'0 0.0
2020-Aug-08 00:00N 63°47' E 011°26'0 0.0
2020-Aug-07 22:00N 63°47' E 011°26'0 0.0
2020-Aug-07 19:30N 63°47' E 011°26'1 0.6
2020-Aug-07 17:30N 63°48' E 011°24'3 2.6
2020-Aug-07 16:30N 63°48' E 011°18'7 2.7
2020-Aug-07 14:00N 63°51' E 011°04'27105.7
2020-Aug-07 14:00N 63°49' E 011°01'0 0.0
2020-Aug-07 13:00N 63°49' E 011°01'2560.1
2020-Aug-07 13:00N 63°51' E 011°03'2 4.7
2020-Aug-07 12:30N 63°49' E 011°01'277.5
2020-Aug-07 12:29N 63°50' E 011°04'2 0.9
2020-Aug-07 10:30N 63°49' E 011°01'072.1
2020-Aug-07 10:30N 63°49' E 011°01'0 0.0
2020-Aug-07 10:00N 63°49' E 011°01'1166.7
2020-Aug-07 10:00N 63°50' E 011°03'11 3.1
2020-Aug-07 06:30N 63°47' E 011°26'0 0.0
2020-Aug-07 05:00N 63°47' E 011°26'0 0.0
2020-Aug-07 04:30N 63°47' E 011°26'0 0.0
2020-Aug-07 04:00N 63°47' E 011°26'0 0.0
2020-Aug-07 03:30N 63°47' E 011°26'0 0.0
2020-Aug-07 01:00N 63°47' E 011°26'0 0.0
2020-Aug-06 23:30N 63°47' E 011°26'0 0.0
2020-Aug-06 21:30N 63°47' E 011°26'0 0.0
2020-Aug-06 20:00N 63°47' E 011°26'6 1.6
2020-Aug-06 16:00N 63°49' E 011°12'0 0.4
2020-Aug-06 16:00N 63°49' E 011°12'0 0.0
2020-Aug-06 13:30N 63°49' E 011°12'328.9
2020-Aug-06 13:24N 63°48' E 011°06'9 1.2
2020-Aug-06 06:00N 63°47' E 011°26'0 0.0
2020-Aug-06 05:30N 63°47' E 011°26'0 0.0
2020-Aug-06 04:30N 63°47' E 011°26'0 0.0
2020-Aug-06 04:00N 63°47' E 011°26'0 0.0
2020-Aug-06 02:00N 63°47' E 011°26'0 0.0
2020-Aug-06 01:30N 63°47' E 011°26'0 0.0
2020-Aug-05 22:30N 63°47' E 011°26'0 0.0
2020-Aug-05 20:00N 63°47' E 011°26'0 0.0
2020-Aug-05 19:30N 63°47' E 011°26'0 0.0
2020-Aug-05 17:30N 63°47' E 011°26'6 1.8
2020-Aug-05 14:00N 63°52' E 011°17'0 0.0
2020-Aug-05 13:00N 63°52' E 011°17'0 0.0
2020-Aug-05 12:30N 63°52' E 011°17'0 0.0
2020-Aug-05 09:30N 63°52' E 011°17'6 2.1
2020-Aug-05 06:30N 63°47' E 011°26'0 0.0
2020-Aug-05 04:30N 63°47' E 011°26'0 0.0
2020-Aug-05 00:30N 63°47' E 011°26'0 0.0
2020-Aug-04 22:30N 63°47' E 011°26'0 0.0
2020-Aug-04 21:00N 63°47' E 011°26'0 0.0
2020-Aug-04 20:00N 63°47' E 011°26'0 0.0
2020-Aug-04 17:00N 63°47' E 011°26'5 0.9
2020-Aug-04 11:00N 63°52' E 011°21'2287.8
2020-Aug-04 11:00N 63°52' E 011°17'1 0.6
2020-Aug-04 09:30N 63°51' E 011°18'1 1.5
2020-Aug-04 09:00N 63°50' E 011°18'3 6.0
2020-Aug-04 08:30N 63°50' E 011°24'3 0.7
2020-Aug-04 05:00N 63°47' E 011°26'0 0.0
2020-Aug-04 04:00N 63°47' E 011°26'0 0.0
2020-Aug-04 03:00N 63°47' E 011°26'0 0.0
2020-Aug-03 22:30N 63°47' E 011°26'0 0.0
2020-Aug-03 17:30N 63°47' E 011°26'0 0.0
2020-Aug-03 16:30N 63°47' E 011°26'3 2.6
2020-Aug-03 15:30N 63°48' E 011°21'3 1.3
2020-Aug-03 13:00N 63°49' E 011°13'0193.6
2020-Aug-03 13:00N 63°49' E 011°13'0 0.1
2020-Aug-03 11:00N 63°49' E 011°13'026.7
2020-Aug-03 11:00N 63°49' E 011°13'0 0.1
2020-Aug-03 10:00N 63°49' E 011°14'0 0.4
2020-Aug-03 09:30N 63°49' E 011°14'0 0.3
2020-Aug-03 09:00N 63°49' E 011°14'6 2.8
2020-Aug-03 07:00N 63°47' E 011°26'0 0.0
2020-Aug-03 05:30N 63°47' E 011°26'0 0.0
2020-Aug-03 04:30N 63°47' E 011°26'0 0.0
2020-Aug-03 03:30N 63°47' E 011°26'0 0.0
2020-Aug-03 00:00N 63°47' E 011°26'0 0.0
2020-Aug-02 17:30N 63°47' E 011°26'0 0.0
2020-Aug-02 16:30N 63°47' E 011°26'4 1.4
2020-Aug-02 13:30N 63°50' E 011°19'3 5.1
2020-Aug-02 13:00N 63°50' E 011°25'0 0.3
2020-Aug-02 12:30N 63°50' E 011°25'0 0.0
2020-Aug-02 10:30N 63°50' E 011°25'0 0.1
2020-Aug-02 10:00N 63°50' E 011°25'3 0.7
2020-Aug-02 06:30N 63°47' E 011°26'0 0.0
2020-Aug-02 05:00N 63°47' E 011°26'0 0.0
2020-Aug-02 04:30N 63°47' E 011°26'0 0.0
2020-Aug-02 04:00N 63°47' E 011°26'0 0.0
2020-Aug-02 03:00N 63°47' E 011°26'0 0.0
2020-Aug-02 02:00N 63°47' E 011°26'0 0.0
2020-Aug-02 01:00N 63°47' E 011°26'0 0.0
2020-Aug-01 22:30N 63°47' E 011°26'0 0.0
2020-Aug-01 15:59N 63°47' E 011°26'0 0.0
2020-Aug-01 14:00N 63°47' E 011°26'0 0.0
2020-Aug-01 11:30N 63°47' E 011°26'0 0.0
2020-Aug-01 09:30N 63°47' E 011°26'0 0.0
2020-Aug-01 05:30N 63°47' E 011°26'0 0.0
2020-Aug-01 03:00N 63°47' E 011°26'0 0.0
2020-Aug-01 02:30N 63°47' E 011°26'0 0.0
2020-Aug-01 00:30N 63°47' E 011°26'0 0.0
2020-Aug-01 00:00N 63°47' E 011°26'11 4.4
2020-Jul-31 21:30N 63°44' E 011°02'37 5.7
2020-Jul-31 15:04N 63°39' E 009°40'21 7.0
2020-Jul-31 12:00N 63°28' E 008°58'15 7.6
2020-Jul-31 10:00N 63°22' E 008°27'24 6.7
2020-Jul-31 06:30N 63°07' E 007°47'0 0.0
2020-Jul-31 06:00N 63°07' E 007°47'0 0.0
2020-Jul-31 05:00N 63°07' E 007°47'0 0.0
2020-Jul-31 04:00N 63°07' E 007°47'0 0.0
2020-Jul-31 01:00N 63°07' E 007°47'2 3.6
2020-Jul-31 00:30N 63°06' E 007°43'  
Track history (hours):
 
Tides and Currents Weather Stations Pressure Air Temp Water Temp Dewpoint Dewpoint Depression Visibility Wind Speed Wind Dir Waves Ship Positions

Oceanographic research ship Fangst (Norway)

Detailed information on ship capabilities available from University of Delaware's Ocean Information Center and ARCUS's ALIAS (Arctic Logistics Information and Support) project.

Last reported at 2020-Aug-10 00:30 UTC. Time now 2020-Aug-10 02:39 UTC.
Position N 63°47' E 011°26'.

Length 14 m; draft 3 m.

Type: Fishing. MMSI: 257076840.

Date/timePositionNaut miles runAvg speedWind from/ knotsBaromVisibWave heightAir tempDewpointWater temp
2020-Aug-10 00:30N 63°47' E 011°26'0 0.0
2020-Aug-09 23:30N 63°47' E 011°26'0 0.0
2020-Aug-09 20:00N 63°47' E 011°26'0 0.0
2020-Aug-09 18:30N 63°47' E 011°26'2 1.1
2020-Aug-09 16:30N 63°47' E 011°22'2 1.6
2020-Aug-09 15:00N 63°45' E 011°18'181.3
2020-Aug-09 15:00N 63°45' E 011°17'1 0.2
2020-Aug-09 12:30N 63°45' E 011°18'145.7
2020-Aug-09 12:29N 63°45' E 011°17'1 0.5
2020-Aug-09 11:00N 63°45' E 011°18'0 0.3
2020-Aug-09 09:30N 63°45' E 011°17'01464.5
2020-Aug-09 09:30N 63°45' E 011°18'2 0.8
2020-Aug-09 07:30N 63°46' E 011°20'3 5.4
2020-Aug-09 07:00N 63°47' E 011°26'0 0.3
2020-Aug-09 05:30N 63°47' E 011°26'0 0.0
2020-Aug-09 04:30N 63°47' E 011°26'0 0.0
2020-Aug-08 23:30N 63°47' E 011°26'0 0.0
2020-Aug-08 22:30N 63°47' E 011°26'0 0.0
2020-Aug-08 21:30N 63°47' E 011°26'0 0.0
2020-Aug-08 17:30N 63°47' E 011°26'0 0.0
2020-Aug-08 14:30N 63°47' E 011°26'6 4.2
2020-Aug-08 13:00N 63°51' E 011°15'0 1.5
2020-Aug-08 13:00N 63°51' E 011°15'0 0.1
2020-Aug-08 11:30N 63°51' E 011°15'146.1
2020-Aug-08 11:29N 63°52' E 011°18'1 1.6
2020-Aug-08 11:00N 63°51' E 011°16'01580.1
2020-Aug-08 11:00N 63°51' E 011°15'4 1.1
2020-Aug-08 07:34N 63°50' E 011°07'015.6
2020-Aug-08 07:34N 63°50' E 011°07'9 3.5
2020-Aug-08 05:00N 63°47' E 011°26'0 0.0
2020-Aug-08 04:00N 63°47' E 011°26'0 0.0
2020-Aug-08 03:30N 63°47' E 011°26'0 0.0
2020-Aug-08 03:00N 63°47' E 011°26'0 0.0
2020-Aug-08 01:00N 63°47' E 011°26'0 0.0
2020-Aug-08 00:00N 63°47' E 011°26'0 0.0
2020-Aug-07 22:00N 63°47' E 011°26'0 0.0
2020-Aug-07 19:30N 63°47' E 011°26'1 0.6
2020-Aug-07 17:30N 63°48' E 011°24'3 2.6
2020-Aug-07 16:30N 63°48' E 011°18'7 2.7
2020-Aug-07 14:00N 63°51' E 011°04'27105.7
2020-Aug-07 14:00N 63°49' E 011°01'0 0.0
2020-Aug-07 13:00N 63°49' E 011°01'2560.1
2020-Aug-07 13:00N 63°51' E 011°03'2 4.7
2020-Aug-07 12:30N 63°49' E 011°01'277.5
2020-Aug-07 12:29N 63°50' E 011°04'2 0.9
2020-Aug-07 10:30N 63°49' E 011°01'072.1
2020-Aug-07 10:30N 63°49' E 011°01'0 0.0
2020-Aug-07 10:00N 63°49' E 011°01'1166.7
2020-Aug-07 10:00N 63°50' E 011°03'11 3.1
2020-Aug-07 06:30N 63°47' E 011°26'0 0.0
2020-Aug-07 05:00N 63°47' E 011°26'0 0.0
2020-Aug-07 04:30N 63°47' E 011°26'0 0.0
2020-Aug-07 04:00N 63°47' E 011°26'0 0.0
2020-Aug-07 03:30N 63°47' E 011°26'0 0.0
2020-Aug-07 01:00N 63°47' E 011°26'0 0.0
2020-Aug-06 23:30N 63°47' E 011°26'0 0.0
2020-Aug-06 21:30N 63°47' E 011°26'0 0.0
2020-Aug-06 20:00N 63°47' E 011°26'6 1.6
2020-Aug-06 16:00N 63°49' E 011°12'0 0.4
2020-Aug-06 16:00N 63°49' E 011°12'0 0.0
2020-Aug-06 13:30N 63°49' E 011°12'328.9
2020-Aug-06 13:24N 63°48' E 011°06'9 1.2
2020-Aug-06 06:00N 63°47' E 011°26'0 0.0
2020-Aug-06 05:30N 63°47' E 011°26'0 0.0
2020-Aug-06 04:30N 63°47' E 011°26'0 0.0
2020-Aug-06 04:00N 63°47' E 011°26'0 0.0
2020-Aug-06 02:00N 63°47' E 011°26'0 0.0
2020-Aug-06 01:30N 63°47' E 011°26'0 0.0
2020-Aug-05 22:30N 63°47' E 011°26'0 0.0
2020-Aug-05 20:00N 63°47' E 011°26'0 0.0
2020-Aug-05 19:30N 63°47' E 011°26'0 0.0
2020-Aug-05 17:30N 63°47' E 011°26'6 1.8
2020-Aug-05 14:00N 63°52' E 011°17'0 0.0
2020-Aug-05 13:00N 63°52' E 011°17'0 0.0
2020-Aug-05 12:30N 63°52' E 011°17'0 0.0
2020-Aug-05 09:30N 63°52' E 011°17'6 2.1
2020-Aug-05 06:30N 63°47' E 011°26'0 0.0
2020-Aug-05 04:30N 63°47' E 011°26'0 0.0
2020-Aug-05 00:30N 63°47' E 011°26'0 0.0
2020-Aug-04 22:30N 63°47' E 011°26'0 0.0
2020-Aug-04 21:00N 63°47' E 011°26'0 0.0
2020-Aug-04 20:00N 63°47' E 011°26'0 0.0
2020-Aug-04 17:00N 63°47' E 011°26'5 0.9
2020-Aug-04 11:00N 63°52' E 011°21'2287.8
2020-Aug-04 11:00N 63°52' E 011°17'1 0.6
2020-Aug-04 09:30N 63°51' E 011°18'1 1.5
2020-Aug-04 09:00N 63°50' E 011°18'3 6.0
2020-Aug-04 08:30N 63°50' E 011°24'3 0.7
2020-Aug-04 05:00N 63°47' E 011°26'0 0.0
2020-Aug-04 04:00N 63°47' E 011°26'0 0.0
2020-Aug-04 03:00N 63°47' E 011°26'0 0.0
2020-Aug-03 22:30N 63°47' E 011°26'0 0.0
2020-Aug-03 17:30N 63°47' E 011°26'0 0.0
2020-Aug-03 16:30N 63°47' E 011°26'3 2.6
2020-Aug-03 15:30N 63°48' E 011°21'3 1.3
2020-Aug-03 13:00N 63°49' E 011°13'0193.6
2020-Aug-03 13:00N 63°49' E 011°13'0 0.1
2020-Aug-03 11:00N 63°49' E 011°13'026.7
2020-Aug-03 11:00N 63°49' E 011°13'0 0.1
2020-Aug-03 10:00N 63°49' E 011°14'0 0.4
2020-Aug-03 09:30N 63°49' E 011°14'0 0.3
2020-Aug-03 09:00N 63°49' E 011°14'6 2.8
2020-Aug-03 07:00N 63°47' E 011°26'0 0.0
2020-Aug-03 05:30N 63°47' E 011°26'0 0.0
2020-Aug-03 04:30N 63°47' E 011°26'0 0.0
2020-Aug-03 03:30N 63°47' E 011°26'0 0.0
2020-Aug-03 00:00N 63°47' E 011°26'0 0.0
2020-Aug-02 17:30N 63°47' E 011°26'0 0.0
2020-Aug-02 16:30N 63°47' E 011°26'4 1.4
2020-Aug-02 13:30N 63°50' E 011°19'3 5.1
2020-Aug-02 13:00N 63°50' E 011°25'0 0.3
2020-Aug-02 12:30N 63°50' E 011°25'0 0.0
2020-Aug-02 10:30N 63°50' E 011°25'0 0.1
2020-Aug-02 10:00N 63°50' E 011°25'3 0.7
2020-Aug-02 06:30N 63°47' E 011°26'0 0.0
2020-Aug-02 05:00N 63°47' E 011°26'0 0.0
2020-Aug-02 04:30N 63°47' E 011°26'0 0.0
2020-Aug-02 04:00N 63°47' E 011°26'0 0.0
2020-Aug-02 03:00N 63°47' E 011°26'0 0.0
2020-Aug-02 02:00N 63°47' E 011°26'0 0.0
2020-Aug-02 01:00N 63°47' E 011°26'0 0.0
2020-Aug-01 22:30N 63°47' E 011°26'0 0.0
2020-Aug-01 15:59N 63°47' E 011°26'0 0.0
2020-Aug-01 14:00N 63°47' E 011°26'0 0.0
2020-Aug-01 11:30N 63°47' E 011°26'0 0.0
2020-Aug-01 09:30N 63°47' E 011°26'0 0.0
2020-Aug-01 05:30N 63°47' E 011°26'0 0.0
2020-Aug-01 03:00N 63°47' E 011°26'0 0.0
2020-Aug-01 02:30N 63°47' E 011°26'0 0.0
2020-Aug-01 00:30N 63°47' E 011°26'0 0.0
2020-Aug-01 00:00N 63°47' E 011°26'11 4.4
2020-Jul-31 21:30N 63°44' E 011°02'37 5.7
2020-Jul-31 15:04N 63°39' E 009°40'21 7.0
2020-Jul-31 12:00N 63°28' E 008°58'15 7.6
2020-Jul-31 10:00N 63°22' E 008°27'24 6.7
2020-Jul-31 06:30N 63°07' E 007°47'0 0.0
2020-Jul-31 06:00N 63°07' E 007°47'0 0.0
2020-Jul-31 05:00N 63°07' E 007°47'0 0.0
2020-Jul-31 04:00N 63°07' E 007°47'0 0.0
2020-Jul-31 01:00N 63°07' E 007°47'2 3.6
2020-Jul-31 00:30N 63°06' E 007°43'  

Dump ship's entire track history